createdAt,value
2023-05-10T00:00:51.847Z,47.95
2023-05-10T00:03:20.012Z,51.50
2023-05-10T00:05:47.990Z,56.10
2023-05-10T00:08:16.026Z,55.55
2023-05-10T00:10:43.879Z,55.83
2023-05-10T00:13:11.841Z,50.65
2023-05-10T00:15:41.464Z,49.42
2023-05-10T00:18:09.671Z,51.92
2023-05-10T00:20:37.783Z,53.00
2023-05-10T00:23:05.936Z,50.17
2023-05-10T00:25:33.949Z,50.67
2023-05-10T00:28:02.863Z,53.88
2023-05-10T00:30:30.773Z,51.00
2023-05-10T00:33:00.033Z,52.60
2023-05-10T00:35:28.209Z,47.70
2023-05-10T00:37:56.239Z,54.35
2023-05-10T00:40:24.249Z,51.20
2023-05-10T00:42:56.826Z,52.15
2023-05-10T00:45:25.230Z,53.85
2023-05-10T00:47:56.783Z,54.95
2023-05-10T00:50:26.941Z,54.10
2023-05-10T00:52:55.006Z,53.65
2023-05-10T00:55:23.332Z,54.75
2023-05-10T00:57:51.402Z,56.97
2023-05-10T01:00:21.084Z,58.35
2023-05-10T01:02:50.675Z,59.25
2023-05-10T01:05:19.299Z,61.80
2023-05-10T01:07:50.184Z,61.53
2023-05-10T01:10:18.594Z,72.15
2023-05-10T01:12:48.913Z,68.38
2023-05-10T01:15:17.689Z,73.05
2023-05-10T01:17:47.687Z,72.95
2023-05-10T01:20:17.032Z,74.25
2023-05-10T01:23:06.157Z,74.07
2023-05-10T01:26:04.672Z,73.95
2023-05-10T01:28:52.634Z,68.93
2023-05-10T01:31:25.973Z,68.45
2023-05-10T01:33:59.933Z,67.22
2023-05-10T01:36:33.352Z,67.63
2023-05-10T01:39:04.841Z,62.90
2023-05-10T01:41:41.410Z,66.20
2023-05-10T01:44:16.858Z,67.43
2023-05-10T01:46:45.251Z,68.53
2023-05-10T01:49:22.456Z,67.22
2023-05-10T01:51:55.893Z,70.72
2023-05-10T01:54:25.711Z,63.67
2023-05-10T01:56:59.941Z,68.88
2023-05-10T01:59:31.815Z,63.15
2023-05-10T02:02:01.187Z,65.82
2023-05-10T02:04:33.788Z,63.97
2023-05-10T02:07:01.963Z,61.65
2023-05-10T02:09:30.941Z,64.68
2023-05-10T02:12:00.781Z,69.95
2023-05-10T02:14:31.304Z,73.50
2023-05-10T02:17:00.856Z,65.53
2023-05-10T02:19:31.301Z,66.95
2023-05-10T02:21:59.596Z,70.97
2023-05-10T02:24:29.709Z,74.15
2023-05-10T02:26:58.705Z,71.15
2023-05-10T02:29:27.372Z,73.15
2023-05-10T02:31:56.658Z,64.28
2023-05-10T02:34:25.876Z,73.00
2023-05-10T02:36:55.571Z,79.35
2023-05-10T02:39:24.282Z,71.43
2023-05-10T02:41:52.865Z,78.35
2023-05-10T02:44:21.574Z,75.88
2023-05-10T02:46:49.514Z,77.03
2023-05-10T02:49:17.988Z,83.05
2023-05-10T02:51:51.289Z,78.28
2023-05-10T02:54:22.753Z,76.00
2023-05-10T02:56:53.657Z,78.82
2023-05-10T02:59:21.784Z,80.93
2023-05-10T03:01:49.895Z,83.53
2023-05-10T03:04:18.098Z,73.13
2023-05-10T03:06:46.916Z,81.57
2023-05-10T03:09:16.659Z,73.45
2023-05-10T03:11:56.751Z,76.53
2023-05-10T03:14:35.267Z,76.07
2023-05-10T03:17:09.390Z,70.05
2023-05-10T03:19:44.940Z,80.20
2023-05-10T03:22:15.430Z,84.47
2023-05-10T03:24:43.807Z,78.95
2023-05-10T03:27:13.702Z,82.20
2023-05-10T03:29:42.118Z,73.32
2023-05-10T03:32:10.580Z,81.13
2023-05-10T03:34:43.618Z,84.18
2023-05-10T03:37:11.862Z,78.65
2023-05-10T03:39:40.428Z,82.35
2023-05-10T03:42:12.930Z,84.57
2023-05-10T03:44:42.512Z,85.00
2023-05-10T03:47:10.579Z,88.70
2023-05-10T03:49:38.878Z,90.25
2023-05-10T03:52:07.661Z,89.47
2023-05-10T03:54:36.425Z,96.95
2023-05-10T03:57:05.018Z,99.72
2023-05-10T03:59:33.796Z,98.22
2023-05-10T04:02:03.141Z,96.10
2023-05-10T04:04:31.676Z,91.93
2023-05-10T04:06:59.865Z,86.78
2023-05-10T04:09:27.953Z,84.65
2023-05-10T04:11:56.201Z,85.07
2023-05-10T04:14:24.093Z,84.53
2023-05-10T04:16:52.164Z,83.10
2023-05-10T04:19:21.546Z,96.35
2023-05-10T04:21:49.435Z,87.53
2023-05-10T04:24:17.333Z,94.50
2023-05-10T04:26:45.364Z,101.97
2023-05-10T04:29:13.313Z,99.00
2023-05-10T04:31:41.120Z,96.55
2023-05-10T04:34:09.209Z,101.22
2023-05-10T04:36:38.861Z,88.70
2023-05-10T04:39:06.891Z,98.75
2023-05-10T04:41:34.831Z,93.03
2023-05-10T04:44:02.704Z,91.55
2023-05-10T04:46:30.783Z,91.45
2023-05-10T04:48:58.739Z,93.65
2023-05-10T04:51:26.859Z,87.38
2023-05-10T04:54:05.195Z,86.97
2023-05-10T04:56:34.984Z,86.75
2023-05-10T04:59:03.082Z,91.00
2023-05-10T05:01:31.061Z,87.55
2023-05-10T05:03:59.414Z,85.10
2023-05-10T05:06:28.460Z,81.18
2023-05-10T05:08:57.858Z,85.43
2023-05-10T05:11:26.534Z,87.10
2023-05-10T05:13:54.556Z,78.72
2023-05-10T05:16:22.567Z,85.78
2023-05-10T05:18:50.440Z,86.47
2023-05-10T05:21:19.300Z,88.18
2023-05-10T05:23:47.653Z,101.70
2023-05-10T05:26:17.029Z,92.82
2023-05-10T05:28:45.099Z,95.30
2023-05-10T05:31:13.171Z,94.72
2023-05-10T05:33:41.129Z,100.20
2023-05-10T05:36:09.346Z,95.18
2023-05-10T05:38:37.131Z,99.57
2023-05-10T05:41:05.181Z,102.43
2023-05-10T05:43:37.472Z,106.63
2023-05-10T05:46:06.694Z,99.20
2023-05-10T05:48:34.809Z,102.20
2023-05-10T05:51:02.978Z,97.38
2023-05-10T05:53:31.727Z,108.40
2023-05-10T05:56:00.415Z,106.07
2023-05-10T05:58:29.021Z,107.38
2023-05-10T06:00:58.391Z,102.35
2023-05-10T06:03:26.568Z,105.82
2023-05-10T06:05:54.711Z,100.07
2023-05-10T06:08:22.962Z,100.63
2023-05-10T06:10:50.952Z,105.25
2023-05-10T06:13:19.092Z,102.85
2023-05-10T06:15:47.353Z,101.25
2023-05-10T06:18:16.546Z,107.63
2023-05-10T06:20:44.820Z,107.72
2023-05-10T06:23:13.145Z,94.10
2023-05-10T06:25:41.301Z,97.03
2023-05-10T06:28:09.399Z,97.10
2023-05-10T06:30:38.677Z,86.97
2023-05-10T06:33:06.692Z,92.50
2023-05-10T06:35:36.184Z,92.72
2023-05-10T06:38:04.004Z,93.47
2023-05-10T06:40:32.175Z,99.25
2023-05-10T06:43:00.175Z,90.68
2023-05-10T06:45:28.060Z,88.82
2023-05-10T06:47:56.043Z,90.15
2023-05-10T06:50:24.588Z,92.55
2023-05-10T06:52:53.704Z,91.80
2023-05-10T06:55:21.759Z,98.07
2023-05-10T06:57:49.658Z,93.93
2023-05-10T07:00:18.860Z,96.28
2023-05-10T07:02:48.023Z,102.97
2023-05-10T07:05:16.420Z,102.95
2023-05-10T07:07:44.604Z,107.47
2023-05-10T07:10:13.717Z,104.90
2023-05-10T07:12:42.189Z,110.90
2023-05-10T07:15:11.317Z,105.50
2023-05-10T07:17:40.204Z,112.45
2023-05-10T07:20:10.841Z,98.65
2023-05-10T07:22:38.758Z,106.20
2023-05-10T07:25:07.619Z,100.25
2023-05-10T07:27:36.953Z,96.45
2023-05-10T07:30:05.411Z,101.45
2023-05-10T07:32:35.369Z,93.45
2023-05-10T07:35:04.430Z,85.53
2023-05-10T07:37:32.261Z,86.20
2023-05-10T07:40:00.252Z,83.70
2023-05-10T07:42:29.239Z,78.65
2023-05-10T07:44:59.385Z,73.43
2023-05-10T07:47:27.329Z,66.03
2023-05-10T07:49:55.501Z,65.47
2023-05-10T07:52:23.606Z,65.13
2023-05-10T07:54:51.743Z,69.53
2023-05-10T07:57:20.201Z,61.42
2023-05-10T07:59:48.625Z,64.55
2023-05-10T08:02:18.042Z,53.38
2023-05-10T08:04:46.679Z,54.50
2023-05-10T08:07:14.812Z,45.40
2023-05-10T08:09:42.799Z,39.85
2023-05-10T08:12:10.908Z,40.25
2023-05-10T08:14:38.684Z,26.67
2023-05-10T08:17:06.867Z,26.90
2023-05-10T08:19:36.312Z,28.90
2023-05-10T08:22:04.080Z,25.40
2023-05-10T08:24:32.076Z,25.65
2023-05-10T08:26:59.893Z,25.73
2023-05-10T08:29:30.429Z,27.30
2023-05-10T08:31:58.337Z,23.45
2023-05-10T08:34:26.486Z,24.38
2023-05-10T08:36:55.726Z,23.80
2023-05-10T08:39:30.385Z,24.35
2023-05-10T08:42:04.196Z,23.10
2023-05-10T08:44:33.091Z,25.53
2023-05-10T08:47:02.145Z,23.98
2023-05-10T08:49:33.128Z,22.65
2023-05-10T08:52:05.413Z,20.10
2023-05-10T08:54:34.239Z,16.95
2023-05-10T08:57:04.596Z,21.08
2023-05-10T08:59:32.968Z,22.65
2023-05-10T09:02:01.277Z,18.77
2023-05-10T09:04:30.214Z,26.92
2023-05-10T09:06:58.471Z,23.70
2023-05-10T09:09:27.944Z,24.98
2023-05-10T09:11:56.500Z,22.50
2023-05-10T09:14:25.943Z,23.42
2023-05-10T09:16:55.255Z,22.60
2023-05-10T09:19:23.053Z,25.08
2023-05-10T09:21:51.157Z,23.13
2023-05-10T09:24:19.139Z,25.42
2023-05-10T09:26:51.556Z,25.42
2023-05-10T09:29:19.493Z,25.40
2023-05-10T09:31:49.163Z,26.50
2023-05-10T09:34:21.917Z,32.38
2023-05-10T09:36:54.299Z,24.13
2023-05-10T09:39:22.820Z,24.55
2023-05-10T09:41:51.973Z,24.70
2023-05-10T09:44:20.858Z,27.88
2023-05-10T09:46:53.815Z,25.73
2023-05-10T09:49:22.743Z,21.90
2023-05-10T09:52:01.665Z,26.27
2023-05-10T09:54:29.805Z,25.33
2023-05-10T09:56:59.071Z,28.00
2023-05-10T09:59:27.649Z,23.35
2023-05-10T10:01:57.491Z,23.92
2023-05-10T10:04:25.779Z,26.15
2023-05-10T10:07:04.607Z,22.50
2023-05-10T10:09:33.182Z,28.92
2023-05-10T10:12:03.054Z,19.35
2023-05-10T10:14:31.293Z,18.52
2023-05-10T10:17:08.255Z,22.33
2023-05-10T10:19:38.089Z,12.73
2023-05-10T10:22:06.930Z,15.45
2023-05-10T10:24:35.011Z,16.23
2023-05-10T10:27:11.603Z,16.85
2023-05-10T10:29:52.111Z,15.88
2023-05-10T10:32:24.653Z,14.30
2023-05-10T10:34:52.849Z,14.88
2023-05-10T10:37:21.458Z,14.90
2023-05-10T10:39:50.662Z,11.85
2023-05-10T10:42:57.319Z,14.55
2023-05-10T10:45:27.460Z,10.65
2023-05-10T10:48:23.995Z,10.45
2023-05-10T10:50:58.723Z,10.48
2023-05-10T10:53:28.629Z,13.82
2023-05-10T10:56:08.156Z,16.45
2023-05-10T10:58:36.672Z,10.02
2023-05-10T11:01:16.730Z,13.77
2023-05-10T11:04:18.734Z,14.02
2023-05-10T11:06:46.719Z,13.00
2023-05-10T11:09:14.884Z,14.02
2023-05-10T11:11:56.115Z,14.07
2023-05-10T11:14:24.785Z,13.68
2023-05-10T11:16:54.023Z,13.48
2023-05-10T11:19:22.006Z,12.60
2023-05-10T11:21:51.061Z,13.18
2023-05-10T11:24:20.087Z,13.05
2023-05-10T11:26:48.087Z,13.70
2023-05-10T11:29:16.002Z,15.70
2023-05-10T11:31:47.921Z,15.57
2023-05-10T11:34:27.262Z,14.25
2023-05-10T11:36:56.083Z,13.27
2023-05-10T11:39:28.278Z,10.20
2023-05-10T11:41:56.524Z,12.55
2023-05-10T11:44:24.474Z,13.85
2023-05-10T11:46:52.387Z,11.15
2023-05-10T11:49:20.404Z,13.48
2023-05-10T11:51:49.514Z,11.93
2023-05-10T11:54:17.440Z,13.77
2023-05-10T11:56:45.955Z,11.18
2023-05-10T11:59:16.385Z,12.13
2023-05-10T12:01:44.504Z,13.52
2023-05-10T12:04:12.659Z,11.98
2023-05-10T12:06:42.700Z,9.95
2023-05-10T12:09:11.959Z,11.73
2023-05-10T12:11:43.591Z,9.88
2023-05-10T12:14:12.391Z,11.30
2023-05-10T12:16:40.214Z,11.50
2023-05-10T12:19:10.439Z,12.30
2023-05-10T12:21:40.018Z,14.63
2023-05-10T12:24:08.011Z,14.95
2023-05-10T12:26:37.426Z,14.55
2023-05-10T12:29:16.721Z,21.63
2023-05-10T12:31:58.715Z,39.95
2023-05-10T12:34:27.803Z,15.75
2023-05-10T12:36:56.512Z,12.48
2023-05-10T12:39:24.418Z,10.70
2023-05-10T12:41:53.825Z,12.73
2023-05-10T12:44:21.660Z,21.38
2023-05-10T12:46:49.377Z,23.17
2023-05-10T12:49:17.810Z,10.60
2023-05-10T12:51:45.804Z,12.93
2023-05-10T12:54:13.690Z,10.88
2023-05-10T12:56:41.955Z,9.60
2023-05-10T12:59:11.409Z,11.98
2023-05-10T13:01:39.752Z,10.70
2023-05-10T13:04:07.729Z,12.45
2023-05-10T13:06:36.054Z,10.38
2023-05-10T13:09:04.440Z,12.07
2023-05-10T13:11:32.175Z,9.60
2023-05-10T13:14:00.449Z,8.80
2023-05-10T13:16:29.676Z,9.00
2023-05-10T13:18:57.493Z,9.93
2023-05-10T13:21:26.284Z,8.82
2023-05-10T13:23:54.857Z,10.07
2023-05-10T13:26:22.546Z,10.85
2023-05-10T13:28:52.435Z,9.73
2023-05-10T13:31:20.343Z,12.77
2023-05-10T13:33:49.604Z,16.05
2023-05-10T13:36:17.445Z,13.23
2023-05-10T13:38:45.181Z,14.73
2023-05-10T13:41:13.287Z,13.27
2023-05-10T13:43:41.044Z,11.10
2023-05-10T13:46:08.980Z,8.95
2023-05-10T13:48:38.974Z,8.82
2023-05-10T13:51:09.007Z,7.28
2023-05-10T13:53:37.631Z,6.03
2023-05-10T13:56:05.611Z,8.70
2023-05-10T13:58:33.421Z,9.32
2023-05-10T14:01:01.665Z,9.40
2023-05-10T14:03:29.733Z,9.35
2023-05-10T14:05:57.630Z,6.85
2023-05-10T14:08:28.008Z,8.93
2023-05-10T14:10:57.469Z,9.43
2023-05-10T14:13:25.826Z,8.05
2023-05-10T14:15:55.380Z,13.02
2023-05-10T14:18:23.215Z,7.57
2023-05-10T14:20:51.285Z,8.15
2023-05-10T14:23:20.649Z,8.75
2023-05-10T14:25:49.766Z,8.45
2023-05-10T14:28:18.303Z,9.75
2023-05-10T14:30:46.336Z,9.68
2023-05-10T14:33:14.680Z,11.43
2023-05-10T14:35:42.929Z,10.98
2023-05-10T14:38:11.807Z,10.27
2023-05-10T14:40:39.820Z,9.10
2023-05-10T14:43:08.944Z,8.68
2023-05-10T14:45:36.939Z,12.57
2023-05-10T14:48:05.601Z,8.63
2023-05-10T14:50:37.025Z,9.60
2023-05-10T14:53:05.436Z,8.07
2023-05-10T14:55:33.591Z,9.65
2023-05-10T14:58:01.528Z,9.07
2023-05-10T15:00:31.695Z,8.93
2023-05-10T15:03:00.536Z,8.85
2023-05-10T15:05:28.633Z,12.07
2023-05-10T15:07:57.093Z,9.32
2023-05-10T15:10:24.885Z,9.00
2023-05-10T15:12:52.618Z,8.20
2023-05-10T15:15:20.592Z,9.80
2023-05-10T15:17:49.790Z,11.07
2023-05-10T15:20:17.943Z,12.43
2023-05-10T15:22:45.747Z,12.68
2023-05-10T15:25:13.443Z,12.68
2023-05-10T15:27:41.589Z,13.65
2023-05-10T15:30:10.515Z,11.00
2023-05-10T15:32:40.333Z,12.52
2023-05-10T15:35:11.139Z,11.85
2023-05-10T15:37:38.898Z,11.38
2023-05-10T15:40:08.244Z,12.32
2023-05-10T15:42:36.341Z,11.10
2023-05-10T15:45:05.112Z,15.82
2023-05-10T15:47:33.018Z,15.68
2023-05-10T15:50:01.181Z,15.02
2023-05-10T15:52:30.635Z,11.27
2023-05-10T15:54:58.552Z,17.55
2023-05-10T15:57:26.675Z,11.98
2023-05-10T15:59:54.464Z,17.52
2023-05-10T16:02:23.457Z,16.17
2023-05-10T16:04:51.770Z,15.40
2023-05-10T16:07:19.940Z,14.48
2023-05-10T16:09:49.925Z,15.65
2023-05-10T16:12:18.035Z,14.48
2023-05-10T16:14:46.046Z,16.63
2023-05-10T16:17:15.259Z,16.27
2023-05-10T16:19:43.156Z,14.32
2023-05-10T16:22:11.036Z,16.08
2023-05-10T16:24:38.758Z,18.25
2023-05-10T16:27:08.190Z,21.00
2023-05-10T16:29:36.205Z,16.15
2023-05-10T16:32:03.967Z,15.95
2023-05-10T16:34:31.869Z,18.65
2023-05-10T16:37:07.416Z,17.67
2023-05-10T16:39:43.872Z,15.20
2023-05-10T16:42:18.802Z,13.95
2023-05-10T16:44:50.920Z,15.13
2023-05-10T16:47:23.919Z,18.10
2023-05-10T16:49:51.903Z,14.30
2023-05-10T16:52:19.613Z,16.92
2023-05-10T16:54:47.441Z,15.27
2023-05-10T16:57:16.626Z,16.75
2023-05-10T16:59:44.395Z,12.85
2023-05-10T17:02:12.438Z,14.73
2023-05-10T17:04:42.472Z,14.68
2023-05-10T17:07:13.167Z,13.55
2023-05-10T17:09:47.086Z,17.15
2023-05-10T17:12:27.488Z,13.20
2023-05-10T17:14:56.816Z,16.17
2023-05-10T17:17:39.332Z,15.45
2023-05-10T17:20:09.469Z,14.48
2023-05-10T17:22:37.222Z,14.18
2023-05-10T17:25:05.789Z,13.13
2023-05-10T17:27:35.036Z,13.48
2023-05-10T17:30:02.962Z,14.23
2023-05-10T17:32:30.735Z,14.10
2023-05-10T17:34:58.890Z,14.25
2023-05-10T17:37:26.809Z,13.50
2023-05-10T17:39:54.572Z,14.55
2023-05-10T17:42:22.551Z,12.30
2023-05-10T17:44:51.645Z,16.50
2023-05-10T17:47:20.689Z,14.82
2023-05-10T17:49:48.530Z,15.32
2023-05-10T17:52:16.674Z,17.50
2023-05-10T17:54:44.539Z,15.45
2023-05-10T17:57:12.446Z,15.90
2023-05-10T17:59:40.308Z,15.88
2023-05-10T18:02:09.616Z,16.63
2023-05-10T18:04:37.488Z,15.40
2023-05-10T18:07:05.754Z,13.27
2023-05-10T18:09:34.465Z,15.98
2023-05-10T18:12:03.311Z,18.25
2023-05-10T18:14:40.688Z,13.75
2023-05-10T18:17:10.988Z,17.13
2023-05-10T18:19:38.837Z,16.48
2023-05-10T18:22:08.909Z,16.13
2023-05-10T18:24:41.194Z,15.55
2023-05-10T18:27:09.333Z,13.05
2023-05-10T18:29:37.712Z,14.55
2023-05-10T18:32:06.306Z,13.65
2023-05-10T18:34:35.860Z,18.63
2023-05-10T18:37:07.410Z,16.45
2023-05-10T18:39:36.225Z,15.70
2023-05-10T18:42:05.110Z,15.20
2023-05-10T18:44:33.013Z,17.73
2023-05-10T18:47:01.202Z,19.73
2023-05-10T18:49:29.588Z,17.75
2023-05-10T18:51:58.806Z,14.95
2023-05-10T18:54:26.910Z,21.25
2023-05-10T18:56:54.835Z,20.20
2023-05-10T18:59:22.965Z,20.58
2023-05-10T19:01:51.403Z,16.00
2023-05-10T19:04:19.795Z,16.88
2023-05-10T19:06:47.688Z,18.08
2023-05-10T19:09:17.027Z,19.42
2023-05-10T19:11:44.932Z,17.52
2023-05-10T19:14:12.720Z,15.30
2023-05-10T19:16:41.921Z,16.58
2023-05-10T19:19:10.231Z,17.27
2023-05-10T19:21:38.373Z,15.20
2023-05-10T19:24:06.617Z,15.82
2023-05-10T19:26:36.979Z,14.40
2023-05-10T19:29:05.963Z,15.52
2023-05-10T19:31:34.636Z,19.35
2023-05-10T19:34:03.672Z,16.70
2023-05-10T19:36:31.646Z,16.15
2023-05-10T19:38:59.564Z,22.95
2023-05-10T19:41:28.048Z,24.77
2023-05-10T19:43:57.621Z,22.95
2023-05-10T19:46:25.522Z,19.30
2023-05-10T19:48:53.843Z,19.38
2023-05-10T19:51:22.170Z,23.65
2023-05-10T19:53:50.082Z,17.13
2023-05-10T19:56:18.468Z,20.63
2023-05-10T19:58:46.563Z,24.40
2023-05-10T20:01:16.085Z,24.35
2023-05-10T20:03:44.108Z,26.85
2023-05-10T20:06:12.229Z,24.77
2023-05-10T20:08:40.202Z,18.23
2023-05-10T20:11:07.946Z,18.30
2023-05-10T20:13:35.760Z,20.25
2023-05-10T20:16:05.215Z,23.00
2023-05-10T20:18:34.388Z,19.52
2023-05-10T20:21:02.638Z,21.67
2023-05-10T20:23:30.463Z,20.75
2023-05-10T20:25:58.354Z,21.50
2023-05-10T20:28:27.198Z,20.05
2023-05-10T20:30:56.650Z,17.60
2023-05-10T20:33:24.685Z,22.48
2023-05-10T20:35:54.212Z,20.67
2023-05-10T20:38:22.235Z,17.27
2023-05-10T20:40:50.050Z,23.55
2023-05-10T20:43:18.780Z,16.83
2023-05-10T20:45:46.902Z,20.63
2023-05-10T20:48:14.777Z,18.13
2023-05-10T20:50:42.643Z,19.50
2023-05-10T20:53:11.812Z,20.80
2023-05-10T20:55:39.817Z,23.63
2023-05-10T20:58:08.148Z,18.75
2023-05-10T21:00:35.882Z,21.85
2023-05-10T21:03:04.022Z,20.05
2023-05-10T21:05:32.083Z,23.65
2023-05-10T21:08:00.095Z,21.60
2023-05-10T21:10:29.316Z,22.88
2023-05-10T21:12:57.359Z,29.65
2023-05-10T21:15:25.980Z,23.90
2023-05-10T21:17:54.276Z,25.77
2023-05-10T21:20:24.164Z,22.35
2023-05-10T21:22:52.267Z,23.55
2023-05-10T21:25:20.181Z,22.85
2023-05-10T21:27:49.351Z,23.33
2023-05-10T21:30:17.637Z,24.05
2023-05-10T21:32:45.537Z,27.42
2023-05-10T21:35:13.442Z,25.23
2023-05-10T21:37:41.214Z,26.00
2023-05-10T21:40:10.002Z,24.75
2023-05-10T21:42:37.805Z,26.48
2023-05-10T21:45:08.368Z,23.17
2023-05-10T21:47:36.543Z,28.05
2023-05-10T21:50:04.649Z,28.85
2023-05-10T21:52:32.505Z,26.35
2023-05-10T21:55:00.596Z,28.67
2023-05-10T21:57:28.462Z,30.80
2023-05-10T21:59:56.258Z,26.60
2023-05-10T22:02:25.976Z,24.17
2023-05-10T22:04:53.891Z,26.00
2023-05-10T22:07:21.804Z,32.85
2023-05-10T22:09:49.952Z,29.90
2023-05-10T22:12:17.749Z,26.60
2023-05-10T22:14:47.461Z,30.35
2023-05-10T22:17:16.697Z,31.60
2023-05-10T22:19:46.157Z,32.13
2023-05-10T22:22:13.970Z,28.70
2023-05-10T22:24:42.120Z,32.08
2023-05-10T22:27:11.371Z,29.65
2023-05-10T22:29:39.381Z,33.42
2023-05-10T22:32:07.279Z,29.17
2023-05-10T22:34:35.649Z,29.20
2023-05-10T22:37:05.096Z,29.65
2023-05-10T22:39:32.884Z,38.22
2023-05-10T22:42:01.001Z,31.88
2023-05-10T22:44:28.899Z,35.17
2023-05-10T22:46:57.029Z,35.92
2023-05-10T22:49:24.833Z,31.70
2023-05-10T22:51:52.696Z,34.85
2023-05-10T22:54:21.910Z,36.67
2023-05-10T22:56:49.775Z,33.00
2023-05-10T22:59:17.756Z,34.88
2023-05-10T23:01:45.965Z,31.88
2023-05-10T23:04:14.025Z,34.85
2023-05-10T23:06:41.945Z,36.53
2023-05-10T23:09:09.846Z,32.72
2023-05-10T23:11:38.938Z,30.90
2023-05-10T23:14:06.790Z,33.28
2023-05-10T23:16:35.021Z,32.83
2023-05-10T23:19:03.167Z,29.58
2023-05-10T23:21:32.257Z,30.83
2023-05-10T23:24:00.492Z,31.80
2023-05-10T23:26:28.505Z,35.05
2023-05-10T23:28:57.611Z,32.53
2023-05-10T23:31:25.646Z,34.80
2023-05-10T23:33:53.458Z,33.30
2023-05-10T23:36:21.382Z,35.33
2023-05-10T23:38:49.237Z,31.10
2023-05-10T23:41:17.217Z,33.92
2023-05-10T23:43:45.008Z,33.67
2023-05-10T23:46:14.403Z,31.88
2023-05-10T23:48:42.156Z,35.35
2023-05-10T23:51:10.035Z,31.45
2023-05-10T23:53:38.380Z,30.90
2023-05-10T23:56:07.596Z,29.55
2023-05-10T23:58:35.569Z,34.38
